createdAt,value
2023-04-10T00:00:33.035Z,54.83
2023-04-10T00:01:33.025Z,55.02
2023-04-10T00:02:33.328Z,55.09
2023-04-10T00:03:33.304Z,54.97
2023-04-10T00:04:33.194Z,55.03
2023-04-10T00:05:33.148Z,54.94
2023-04-10T00:06:33.157Z,55.34
2023-04-10T00:07:33.321Z,55.36
2023-04-10T00:08:33.252Z,55.30
2023-04-10T00:09:33.325Z,55.39
2023-04-10T00:10:33.426Z,55.70
2023-04-10T00:11:33.479Z,55.52
2023-04-10T00:12:33.514Z,55.19
2023-04-10T00:13:34.222Z,55.46
2023-04-10T00:14:33.472Z,55.52
2023-04-10T00:15:34.265Z,55.73
2023-04-10T00:16:33.771Z,55.69
2023-04-10T00:17:36.289Z,55.25
2023-04-10T00:18:33.753Z,54.92
2023-04-10T00:19:33.665Z,54.00
2023-04-10T00:20:35.221Z,53.70
2023-04-10T00:21:33.653Z,53.43
2023-04-10T00:22:33.638Z,53.50
2023-04-10T00:23:33.634Z,53.21
2023-04-10T00:24:33.588Z,53.56
2023-04-10T00:25:33.627Z,53.94
2023-04-10T00:26:33.585Z,54.10
2023-04-10T00:27:33.609Z,54.00
2023-04-10T00:28:33.618Z,53.62
2023-04-10T00:29:33.618Z,53.41
2023-04-10T00:30:33.562Z,54.28
2023-04-10T00:31:33.595Z,55.08
2023-04-10T00:32:33.582Z,56.22
2023-04-10T00:33:33.561Z,56.97
2023-04-10T00:34:33.653Z,57.07
2023-04-10T00:35:33.582Z,57.36
2023-04-10T00:36:34.192Z,57.50
2023-04-10T00:37:33.660Z,57.17
2023-04-10T00:38:33.508Z,57.03
2023-04-10T00:39:33.480Z,57.04
2023-04-10T00:40:33.481Z,57.29
2023-04-10T00:41:33.513Z,57.62
2023-04-10T00:42:33.587Z,57.41
2023-04-10T00:43:33.565Z,57.16
2023-04-10T00:44:33.566Z,57.04
2023-04-10T00:45:33.592Z,57.06
2023-04-10T00:46:33.621Z,57.13
2023-04-10T00:47:33.716Z,57.15
2023-04-10T00:48:33.709Z,57.55
2023-04-10T00:49:33.763Z,57.85
2023-04-10T00:50:33.734Z,57.87
2023-04-10T00:51:33.846Z,57.56
2023-04-10T00:52:33.829Z,57.64
2023-04-10T00:53:33.879Z,58.08
2023-04-10T00:54:33.845Z,57.85
2023-04-10T00:55:35.714Z,57.56
2023-04-10T00:56:33.988Z,57.77
2023-04-10T00:57:34.025Z,58.36
2023-04-10T00:58:34.083Z,58.58
2023-04-10T00:59:34.213Z,58.57
2023-04-10T01:00:34.121Z,58.28
2023-04-10T01:01:34.321Z,58.06
2023-04-10T01:02:34.425Z,57.93
2023-04-10T01:03:34.914Z,57.90
2023-04-10T01:04:34.502Z,57.51
2023-04-10T01:05:34.462Z,57.18
2023-04-10T01:06:34.432Z,57.24
2023-04-10T01:07:34.502Z,57.50
2023-04-10T01:08:34.517Z,58.02
2023-04-10T01:09:34.605Z,58.03
2023-04-10T01:10:34.650Z,58.09
2023-04-10T01:11:37.243Z,57.83
2023-04-10T01:12:34.852Z,57.59
2023-04-10T01:13:34.923Z,57.12
2023-04-10T01:14:37.650Z,56.62
2023-04-10T01:15:34.960Z,56.45
2023-04-10T01:16:35.058Z,56.36
2023-04-10T01:17:35.016Z,56.61
2023-04-10T01:18:35.061Z,56.42
2023-04-10T01:19:35.030Z,56.14
2023-04-10T01:20:34.963Z,55.94
2023-04-10T01:21:34.968Z,55.92
2023-04-10T01:22:35.705Z,55.72
2023-04-10T01:23:35.009Z,55.62
2023-04-10T01:24:34.869Z,55.67
2023-04-10T01:25:34.885Z,55.96
2023-04-10T01:26:35.724Z,55.75
2023-04-10T01:27:37.767Z,55.40
2023-04-10T01:28:34.890Z,55.30
2023-04-10T01:29:34.856Z,54.97
2023-04-10T01:30:34.922Z,54.87
2023-04-10T01:31:34.870Z,54.86
2023-04-10T01:32:34.825Z,54.87
2023-04-10T01:33:34.846Z,54.94
2023-04-10T01:34:34.869Z,54.77
2023-04-10T01:35:34.832Z,54.89
2023-04-10T01:36:34.863Z,54.96
2023-04-10T01:37:34.875Z,55.04
2023-04-10T01:38:35.707Z,55.09
2023-04-10T01:39:34.897Z,55.15
2023-04-10T01:40:34.763Z,55.32
2023-04-10T01:41:34.791Z,55.21
2023-04-10T01:42:34.799Z,55.25
2023-04-10T01:43:34.889Z,55.63
2023-04-10T01:44:34.736Z,56.02
2023-04-10T01:45:34.770Z,56.28
2023-04-10T01:46:35.373Z,56.21
2023-04-10T01:47:34.855Z,56.27
2023-04-10T01:48:34.753Z,56.43
2023-04-10T01:49:35.084Z,56.67
2023-04-10T01:50:34.701Z,56.80
2023-04-10T01:51:36.240Z,57.05
2023-04-10T01:52:34.676Z,57.41
2023-04-10T01:53:34.853Z,57.40
2023-04-10T01:54:34.819Z,57.48
2023-04-10T01:55:34.720Z,57.54
2023-04-10T01:56:34.654Z,57.96
2023-04-10T01:57:34.728Z,57.73
2023-04-10T01:58:34.687Z,57.62
2023-04-10T01:59:35.183Z,57.27
2023-04-10T02:00:34.621Z,56.82
2023-04-10T02:01:34.682Z,56.31
2023-04-10T02:02:34.814Z,55.82
2023-04-10T02:03:35.466Z,55.59
2023-04-10T02:04:34.852Z,55.49
2023-04-10T02:05:34.899Z,55.24
2023-04-10T02:06:34.628Z,55.05
2023-04-10T02:07:34.717Z,55.43
2023-04-10T02:08:34.575Z,54.97
2023-04-10T02:09:34.605Z,54.91
2023-04-10T02:10:34.560Z,54.58
2023-04-10T02:11:34.629Z,54.26
2023-04-10T02:12:34.701Z,54.49
2023-04-10T02:13:34.676Z,54.99
2023-04-10T02:14:34.785Z,55.34
2023-04-10T02:15:34.817Z,55.46
2023-04-10T02:16:34.987Z,55.61
2023-04-10T02:17:34.838Z,55.33
2023-04-10T02:18:34.884Z,54.84
2023-04-10T02:19:34.866Z,54.37
2023-04-10T02:20:34.891Z,54.21
2023-04-10T02:21:34.924Z,54.10
2023-04-10T02:22:34.947Z,54.07
2023-04-10T02:23:34.957Z,53.90
2023-04-10T02:24:35.809Z,53.83
2023-04-10T02:25:34.970Z,53.66
2023-04-10T02:26:35.017Z,53.71
2023-04-10T02:27:35.003Z,53.71
2023-04-10T02:28:34.996Z,54.03
2023-04-10T02:29:35.052Z,53.73
2023-04-10T02:30:35.104Z,53.43
2023-04-10T02:31:35.205Z,53.24
2023-04-10T02:32:35.144Z,53.79
2023-04-10T02:33:35.186Z,54.08
2023-04-10T02:34:35.274Z,54.67
2023-04-10T02:35:35.324Z,54.72
2023-04-10T02:36:35.362Z,54.56
2023-04-10T02:37:35.383Z,54.71
2023-04-10T02:38:35.378Z,54.78
2023-04-10T02:39:35.524Z,55.03
2023-04-10T02:40:35.509Z,55.56
2023-04-10T02:41:35.510Z,55.59
2023-04-10T02:42:35.593Z,55.23
2023-04-10T02:43:35.603Z,54.92
2023-04-10T02:44:35.667Z,54.72
2023-04-10T02:45:35.745Z,54.68
2023-04-10T02:46:35.880Z,54.56
2023-04-10T02:47:35.749Z,54.48
2023-04-10T02:48:35.759Z,54.45
2023-04-10T02:49:35.938Z,54.46
2023-04-10T02:50:35.877Z,54.16
2023-04-10T02:51:35.835Z,53.91
2023-04-10T02:52:35.816Z,54.07
2023-04-10T02:53:35.877Z,54.20
2023-04-10T02:54:36.091Z,53.99
2023-04-10T02:55:36.028Z,53.96
2023-04-10T02:56:35.952Z,54.23
2023-04-10T02:57:36.058Z,54.67
2023-04-10T02:58:36.030Z,54.68
2023-04-10T02:59:36.355Z,54.86
2023-04-10T03:00:36.166Z,54.63
2023-04-10T03:01:36.794Z,54.88
2023-04-10T03:02:36.336Z,54.63
2023-04-10T03:03:36.330Z,54.65
2023-04-10T03:04:36.283Z,54.62
2023-04-10T03:05:36.319Z,54.54
2023-04-10T03:06:36.796Z,54.31
2023-04-10T03:07:36.347Z,54.04
2023-04-10T03:08:36.414Z,53.95
2023-04-10T03:09:36.798Z,54.00
2023-04-10T03:10:36.459Z,54.56
2023-04-10T03:11:36.485Z,54.56
2023-04-10T03:12:36.395Z,54.51
2023-04-10T03:13:36.484Z,54.70
2023-04-10T03:14:36.486Z,55.05
2023-04-10T03:15:36.548Z,55.26
2023-04-10T03:16:36.718Z,55.26
2023-04-10T03:17:37.250Z,55.53
2023-04-10T03:18:36.598Z,56.22
2023-04-10T03:19:37.285Z,56.48
2023-04-10T03:20:36.544Z,56.60
2023-04-10T03:21:36.748Z,56.55
2023-04-10T03:22:36.582Z,56.38
2023-04-10T03:23:36.582Z,56.41
2023-04-10T03:24:36.645Z,56.56
2023-04-10T03:25:36.695Z,56.89
2023-04-10T03:26:37.726Z,57.08
2023-04-10T03:27:36.735Z,57.17
2023-04-10T03:28:37.752Z,57.23
2023-04-10T03:29:36.861Z,57.34
2023-04-10T03:30:36.838Z,57.49
2023-04-10T03:31:36.907Z,58.02
2023-04-10T03:32:36.873Z,58.15
2023-04-10T03:33:37.032Z,57.99
2023-04-10T03:34:39.796Z,57.73
2023-04-10T03:35:37.003Z,57.53
2023-04-10T03:36:36.938Z,57.71
2023-04-10T03:37:36.909Z,57.95
2023-04-10T03:38:37.704Z,58.14
2023-04-10T03:39:36.855Z,58.06
2023-04-10T03:40:36.912Z,58.25
2023-04-10T03:41:37.004Z,58.25
2023-04-10T03:42:37.782Z,58.11
2023-04-10T03:43:36.941Z,58.30
2023-04-10T03:44:36.889Z,58.21
2023-04-10T03:45:36.826Z,58.69
2023-04-10T03:46:37.303Z,58.97
2023-04-10T03:47:36.830Z,58.88
2023-04-10T03:48:36.868Z,58.77
2023-04-10T03:49:36.837Z,58.86
2023-04-10T03:50:37.310Z,58.95
2023-04-10T03:51:36.868Z,58.67
2023-04-10T03:52:36.741Z,58.64
2023-04-10T03:53:36.821Z,58.90
2023-04-10T03:54:36.764Z,58.07
2023-04-10T03:55:36.740Z,57.93
2023-04-10T03:56:36.803Z,57.86
2023-04-10T03:57:36.773Z,57.68
2023-04-10T03:58:36.758Z,57.74
2023-04-10T03:59:38.839Z,57.94
2023-04-10T04:00:36.928Z,58.05
2023-04-10T04:01:36.885Z,57.99
2023-04-10T04:02:36.989Z,58.14
2023-04-10T04:03:37.016Z,57.95
2023-04-10T04:04:36.938Z,58.06
2023-04-10T04:05:36.934Z,57.92
2023-04-10T04:06:36.880Z,57.82
2023-04-10T04:07:36.960Z,57.98
2023-04-10T04:08:36.920Z,59.00
2023-04-10T04:09:36.899Z,59.04
2023-04-10T04:10:36.961Z,59.35
2023-04-10T04:11:37.254Z,59.49
2023-04-10T04:12:36.950Z,59.27
2023-04-10T04:13:36.955Z,59.52
2023-04-10T04:14:36.932Z,59.03
2023-04-10T04:15:37.052Z,59.12
2023-04-10T04:16:37.050Z,59.43
2023-04-10T04:17:37.085Z,59.36
2023-04-10T04:18:37.102Z,59.33
2023-04-10T04:19:37.011Z,59.37
2023-04-10T04:20:37.056Z,59.15
2023-04-10T04:21:37.065Z,59.02
2023-04-10T04:22:37.085Z,59.17
2023-04-10T04:23:37.133Z,59.31
2023-04-10T04:24:37.241Z,59.01
2023-04-10T04:25:37.276Z,59.01
2023-04-10T04:26:37.277Z,59.20
2023-04-10T04:27:37.229Z,59.04
2023-04-10T04:28:37.299Z,58.47
2023-04-10T04:29:37.247Z,58.01
2023-04-10T04:30:37.335Z,57.58
2023-04-10T04:31:37.404Z,57.16
2023-04-10T04:32:38.308Z,56.93
2023-04-10T04:33:37.471Z,56.92
2023-04-10T04:34:37.459Z,56.46
2023-04-10T04:35:37.514Z,56.26
2023-04-10T04:36:37.546Z,56.10
2023-04-10T04:37:37.540Z,56.13
2023-04-10T04:38:37.573Z,56.30
2023-04-10T04:39:37.548Z,56.24
2023-04-10T04:40:40.290Z,55.99
2023-04-10T04:41:37.576Z,55.85
2023-04-10T04:42:37.581Z,56.00
2023-04-10T04:43:37.640Z,56.42
2023-04-10T04:44:37.545Z,56.87
2023-04-10T04:45:37.803Z,56.89
2023-04-10T04:46:37.654Z,56.75
2023-04-10T04:47:37.641Z,56.80
2023-04-10T04:48:37.569Z,56.78
2023-04-10T04:49:37.520Z,56.73
2023-04-10T04:50:37.603Z,56.64
2023-04-10T04:51:37.500Z,56.82
2023-04-10T04:52:37.548Z,57.23
2023-04-10T04:53:37.506Z,57.40
2023-04-10T04:54:37.491Z,57.57
2023-04-10T04:55:37.557Z,57.80
2023-04-10T04:56:37.531Z,58.48
2023-04-10T04:57:38.324Z,58.65
2023-04-10T04:58:37.481Z,58.43
2023-04-10T04:59:37.528Z,58.67
2023-04-10T05:00:37.496Z,58.69
2023-04-10T05:01:37.507Z,57.95
2023-04-10T05:02:37.713Z,58.06
2023-04-10T05:03:37.737Z,58.38
2023-04-10T05:04:37.459Z,58.65
2023-04-10T05:05:37.533Z,58.95
2023-04-10T05:06:37.503Z,58.88
2023-04-10T05:07:37.470Z,58.47
2023-04-10T05:08:37.411Z,57.88
2023-04-10T05:09:37.405Z,57.57
2023-04-10T05:10:38.876Z,57.32
2023-04-10T05:11:37.447Z,57.11
2023-04-10T05:12:37.406Z,56.76
2023-04-10T05:13:37.374Z,56.40
2023-04-10T05:14:37.344Z,56.16
2023-04-10T05:15:37.317Z,56.02
2023-04-10T05:16:37.384Z,55.92
2023-04-10T05:17:37.503Z,55.70
2023-04-10T05:18:37.425Z,55.71
2023-04-10T05:19:37.392Z,55.89
2023-04-10T05:20:38.270Z,55.85
2023-04-10T05:21:37.355Z,55.78
2023-04-10T05:22:37.364Z,55.64
2023-04-10T05:23:37.371Z,55.59
2023-04-10T05:24:37.332Z,55.89
2023-04-10T05:25:37.411Z,56.04
2023-04-10T05:26:37.470Z,56.06
2023-04-10T05:27:37.301Z,56.06
2023-04-10T05:28:37.293Z,55.74
2023-04-10T05:29:37.272Z,55.49
2023-04-10T05:30:37.236Z,55.30
2023-04-10T05:31:37.332Z,55.10
2023-04-10T05:32:37.241Z,54.90
2023-04-10T05:33:37.346Z,54.78
2023-04-10T05:34:37.301Z,54.76
2023-04-10T05:35:37.305Z,54.70
2023-04-10T05:36:37.299Z,54.78
2023-04-10T05:37:37.305Z,54.75
2023-04-10T05:38:37.325Z,54.64
2023-04-10T05:39:40.292Z,54.46
2023-04-10T05:40:37.332Z,54.75
2023-04-10T05:41:37.322Z,54.99
2023-04-10T05:42:37.446Z,55.01
2023-04-10T05:43:38.245Z,55.08
2023-04-10T05:44:37.388Z,54.97
2023-04-10T05:45:37.334Z,55.14
2023-04-10T05:46:37.423Z,54.91
2023-04-10T05:47:37.318Z,54.90
2023-04-10T05:48:37.357Z,54.93
2023-04-10T05:49:37.241Z,55.00
2023-04-10T05:50:37.328Z,55.14
2023-04-10T05:51:37.279Z,55.73
2023-04-10T05:52:37.250Z,56.20
2023-04-10T05:53:37.283Z,56.17
2023-04-10T05:54:37.766Z,55.32
2023-04-10T05:55:37.760Z,55.37
2023-04-10T05:56:37.281Z,55.74
2023-04-10T05:57:37.269Z,55.92
2023-04-10T05:58:37.241Z,55.86
2023-04-10T05:59:37.306Z,56.47
2023-04-10T06:00:37.182Z,56.29
2023-04-10T06:01:37.239Z,56.58
2023-04-10T06:02:37.511Z,56.38
2023-04-10T06:03:37.387Z,55.59
2023-04-10T06:04:37.374Z,55.72
2023-04-10T06:05:37.225Z,55.52
2023-04-10T06:06:37.803Z,56.10
2023-04-10T06:07:37.719Z,56.43
2023-04-10T06:08:37.221Z,56.32
2023-04-10T06:09:37.186Z,55.64
2023-04-10T06:10:37.142Z,55.51
2023-04-10T06:11:37.840Z,55.32
2023-04-10T06:12:37.311Z,55.02
2023-04-10T06:13:37.259Z,54.83
2023-04-10T06:14:37.309Z,54.58
2023-04-10T06:15:37.240Z,54.37
2023-04-10T06:16:37.399Z,54.41
2023-04-10T06:17:37.331Z,54.66
2023-04-10T06:18:37.387Z,54.54
2023-04-10T06:19:37.477Z,54.45
2023-04-10T06:20:37.428Z,54.80
2023-04-10T06:21:37.517Z,54.76
2023-04-10T06:22:37.591Z,54.92
2023-04-10T06:23:37.666Z,55.59
2023-04-10T06:24:37.645Z,55.10
2023-04-10T06:25:37.702Z,54.80
2023-04-10T06:26:37.864Z,55.05
2023-04-10T06:27:37.835Z,55.55
2023-04-10T06:28:37.906Z,55.17
2023-04-10T06:29:37.976Z,55.04
2023-04-10T06:30:37.851Z,55.06
2023-04-10T06:31:38.026Z,54.89
2023-04-10T06:32:38.046Z,54.93
2023-04-10T06:33:37.915Z,54.99
2023-04-10T06:34:38.019Z,55.07
2023-04-10T06:35:38.113Z,55.46
2023-04-10T06:36:38.038Z,55.49
2023-04-10T06:37:38.121Z,55.02
2023-04-10T06:38:38.088Z,54.72
2023-04-10T06:39:38.148Z,54.46
2023-04-10T06:40:38.114Z,54.12
2023-04-10T06:41:38.236Z,53.64
2023-04-10T06:42:38.272Z,53.18
2023-04-10T06:43:38.313Z,52.77
2023-04-10T06:44:38.289Z,52.43
2023-04-10T06:45:38.284Z,52.22
2023-04-10T06:46:38.352Z,52.24
2023-04-10T06:47:38.405Z,52.31
2023-04-10T06:48:39.291Z,52.28
2023-04-10T06:49:38.349Z,51.96
2023-04-10T06:50:38.375Z,52.08
2023-04-10T06:51:38.347Z,51.80
2023-04-10T06:52:38.509Z,52.36
2023-04-10T06:53:38.547Z,52.32
2023-04-10T06:54:38.584Z,51.86
2023-04-10T06:55:38.598Z,51.88
2023-04-10T06:56:38.643Z,51.96
2023-04-10T06:57:38.607Z,51.90
2023-04-10T06:58:38.753Z,52.05
2023-04-10T06:59:38.724Z,52.05
2023-04-10T07:00:38.745Z,51.45
2023-04-10T07:01:38.804Z,52.02
2023-04-10T07:02:38.808Z,52.13
2023-04-10T07:03:38.785Z,51.58
2023-04-10T07:04:38.769Z,51.29
2023-04-10T07:05:40.821Z,51.18
2023-04-10T07:06:38.931Z,50.20
2023-04-10T07:07:38.846Z,49.95
2023-04-10T07:08:38.873Z,50.13
2023-04-10T07:09:38.783Z,50.59
2023-04-10T07:10:38.719Z,51.11
2023-04-10T07:11:38.946Z,51.14
2023-04-10T07:12:38.862Z,51.17
2023-04-10T07:13:38.727Z,51.30
2023-04-10T07:14:38.768Z,50.62
2023-04-10T07:15:38.756Z,50.37
2023-04-10T07:16:38.829Z,50.44
2023-04-10T07:17:38.746Z,50.38
2023-04-10T07:18:38.757Z,50.75
2023-04-10T07:19:38.724Z,51.40
2023-04-10T07:20:38.772Z,51.44
2023-04-10T07:21:38.684Z,50.49
2023-04-10T07:22:38.700Z,49.98
2023-04-10T07:23:38.629Z,49.62
2023-04-10T07:24:38.840Z,49.47
2023-04-10T07:25:38.667Z,49.21
2023-04-10T07:26:38.664Z,49.02
2023-04-10T07:27:38.651Z,49.18
2023-04-10T07:28:38.635Z,49.29
2023-04-10T07:29:38.651Z,49.48
2023-04-10T07:30:38.661Z,49.72
2023-04-10T07:31:38.818Z,49.90
2023-04-10T07:32:38.775Z,49.92
2023-04-10T07:33:38.614Z,49.77
2023-04-10T07:34:38.621Z,49.95
2023-04-10T07:35:38.723Z,49.82
2023-04-10T07:36:38.591Z,49.35
2023-04-10T07:37:38.614Z,48.84
2023-04-10T07:38:38.589Z,48.63
2023-04-10T07:39:38.541Z,48.82
2023-04-10T07:40:38.533Z,48.16
2023-04-10T07:41:38.558Z,48.45
2023-04-10T07:42:38.564Z,48.97
2023-04-10T07:43:38.489Z,49.10
2023-04-10T07:44:38.592Z,49.52
2023-04-10T07:45:38.646Z,49.98
2023-04-10T07:46:38.497Z,49.96
2023-04-10T07:47:38.551Z,49.81
2023-04-10T07:48:38.534Z,49.63
2023-04-10T07:49:38.508Z,49.32
2023-04-10T07:50:38.497Z,50.04
2023-04-10T07:51:38.537Z,49.46
2023-04-10T07:52:38.480Z,48.87
2023-04-10T07:53:38.514Z,48.82
2023-04-10T07:54:38.475Z,48.49
2023-04-10T07:55:38.512Z,48.11
2023-04-10T07:56:38.485Z,48.34
2023-04-10T07:57:39.679Z,48.14
2023-04-10T07:58:38.619Z,48.47
2023-04-10T07:59:38.743Z,48.21
2023-04-10T08:00:38.679Z,48.01
2023-04-10T08:01:38.688Z,47.73
2023-04-10T08:02:38.754Z,48.60
2023-04-10T08:03:38.882Z,48.48
2023-04-10T08:04:38.822Z,47.58
2023-04-10T08:05:38.692Z,47.39
2023-04-10T08:06:38.763Z,47.13
2023-04-10T08:07:38.823Z,46.78
2023-04-10T08:08:38.857Z,46.87
2023-04-10T08:09:38.806Z,46.70
2023-04-10T08:10:38.867Z,45.83
2023-04-10T08:11:38.956Z,45.10
2023-04-10T08:12:38.888Z,44.67
2023-04-10T08:13:38.941Z,44.65
2023-04-10T08:14:38.950Z,44.44
2023-04-10T08:15:38.986Z,44.84
2023-04-10T08:16:38.987Z,45.45
2023-04-10T08:17:39.003Z,46.06
2023-04-10T08:18:38.972Z,45.67
2023-04-10T08:19:39.018Z,44.51
2023-04-10T08:20:39.054Z,44.20
2023-04-10T08:21:39.102Z,43.99
2023-04-10T08:22:39.098Z,43.65
2023-04-10T08:23:39.128Z,43.02
2023-04-10T08:24:39.135Z,42.67
2023-04-10T08:25:39.174Z,42.43
2023-04-10T08:26:39.289Z,42.11
2023-04-10T08:27:39.301Z,41.88
2023-04-10T08:28:39.370Z,41.77
2023-04-10T08:29:39.433Z,41.76
2023-04-10T08:30:39.422Z,42.09
2023-04-10T08:31:39.429Z,42.31
2023-04-10T08:32:39.488Z,42.33
2023-04-10T08:33:39.531Z,42.51
2023-04-10T08:34:39.538Z,42.30
2023-04-10T08:35:39.610Z,41.92
2023-04-10T08:36:39.568Z,41.81
2023-04-10T08:37:39.587Z,41.79
2023-04-10T08:38:39.635Z,42.03
2023-04-10T08:39:39.624Z,41.90
2023-04-10T08:40:39.693Z,41.05
2023-04-10T08:41:39.714Z,41.19
2023-04-10T08:42:39.780Z,41.05
2023-04-10T08:43:39.855Z,41.04
2023-04-10T08:44:39.908Z,40.86
2023-04-10T08:45:39.889Z,40.96
2023-04-10T08:46:39.996Z,41.76
2023-04-10T08:47:40.006Z,41.45
2023-04-10T08:48:40.060Z,41.42
2023-04-10T08:49:40.082Z,41.17
2023-04-10T08:50:40.134Z,41.55
2023-04-10T08:51:40.156Z,41.31
2023-04-10T08:52:40.271Z,39.69
2023-04-10T08:53:40.294Z,39.39
2023-04-10T08:54:40.310Z,39.40
2023-04-10T08:55:40.386Z,39.71
2023-04-10T08:56:40.357Z,39.86
2023-04-10T08:57:42.908Z,39.24
2023-04-10T08:58:40.392Z,39.46
2023-04-10T08:59:40.414Z,39.37
2023-04-10T09:00:40.429Z,38.14
2023-04-10T09:01:40.504Z,38.31
2023-04-10T09:02:42.371Z,38.52
2023-04-10T09:03:40.617Z,38.88
2023-04-10T09:04:40.630Z,38.20
2023-04-10T09:05:40.480Z,37.69
2023-04-10T09:06:40.561Z,37.45
2023-04-10T09:07:40.630Z,38.16
2023-04-10T09:08:40.575Z,39.27
2023-04-10T09:09:40.612Z,39.85
2023-04-10T09:10:40.675Z,40.34
2023-04-10T09:11:40.685Z,39.17
2023-04-10T09:12:40.695Z,38.09
2023-04-10T09:13:40.722Z,36.68
2023-04-10T09:14:40.833Z,37.63
2023-04-10T09:15:40.891Z,38.81
2023-04-10T09:16:40.831Z,37.45
2023-04-10T09:17:40.921Z,36.90
2023-04-10T09:18:40.952Z,35.50
2023-04-10T09:19:41.794Z,33.97
2023-04-10T09:20:40.944Z,33.81
2023-04-10T09:21:43.824Z,33.96
2023-04-10T09:22:40.927Z,33.55
2023-04-10T09:23:40.894Z,33.66
2023-04-10T09:24:40.921Z,32.57
2023-04-10T09:25:41.801Z,32.34
2023-04-10T09:26:40.901Z,32.48
2023-04-10T09:27:40.884Z,32.45
2023-04-10T09:28:40.897Z,31.49
2023-04-10T09:29:40.907Z,32.15
2023-04-10T09:30:40.869Z,31.64
2023-04-10T09:31:40.848Z,31.99
2023-04-10T09:32:40.971Z,32.49
2023-04-10T09:33:40.875Z,32.82
2023-04-10T09:34:40.858Z,32.56
2023-04-10T09:35:40.828Z,32.64
2023-04-10T09:36:41.467Z,32.59
2023-04-10T09:37:40.878Z,32.64
2023-04-10T09:38:40.815Z,32.27
2023-04-10T09:39:40.798Z,31.89
2023-04-10T09:40:40.807Z,32.13
2023-04-10T09:41:40.827Z,32.01
2023-04-10T09:42:40.883Z,32.27
2023-04-10T09:43:40.842Z,31.65
2023-04-10T09:44:40.838Z,33.22
2023-04-10T09:45:40.813Z,33.38
2023-04-10T09:46:40.871Z,31.85
2023-04-10T09:47:40.861Z,30.07
2023-04-10T09:48:40.955Z,31.48
2023-04-10T09:49:40.970Z,31.38
2023-04-10T09:50:41.081Z,33.54
2023-04-10T09:51:41.058Z,32.37
2023-04-10T09:52:40.972Z,31.69
2023-04-10T09:53:41.037Z,32.61
2023-04-10T09:54:41.061Z,31.17
2023-04-10T09:55:41.138Z,31.11
2023-04-10T09:56:41.249Z,30.12
2023-04-10T09:57:41.222Z,30.64
2023-04-10T09:58:41.290Z,30.99
2023-04-10T09:59:42.600Z,30.42
2023-04-10T10:00:41.393Z,29.92
2023-04-10T10:01:43.359Z,29.71
2023-04-10T10:02:41.588Z,29.30
2023-04-10T10:03:41.586Z,28.53
2023-04-10T10:04:41.591Z,28.43
2023-04-10T10:05:41.569Z,28.59
2023-04-10T10:06:41.544Z,29.92
2023-04-10T10:07:41.567Z,29.40
2023-04-10T10:08:41.533Z,29.14
2023-04-10T10:09:41.551Z,28.90
2023-04-10T10:10:41.566Z,30.91
2023-04-10T10:11:41.484Z,31.44
2023-04-10T10:12:41.607Z,31.47
2023-04-10T10:13:41.546Z,31.50
2023-04-10T10:14:41.542Z,31.73
2023-04-10T10:15:41.629Z,30.45
2023-04-10T10:16:44.526Z,29.15
2023-04-10T10:17:41.601Z,28.99
2023-04-10T10:18:41.616Z,27.63
2023-04-10T10:19:41.633Z,27.23
2023-04-10T10:20:41.670Z,26.73
2023-04-10T10:21:41.574Z,27.63
2023-04-10T10:22:41.618Z,27.90
2023-04-10T10:23:41.608Z,26.99
2023-04-10T10:24:41.572Z,26.66
2023-04-10T10:25:41.556Z,27.65
2023-04-10T10:26:41.562Z,27.51
2023-04-10T10:27:41.536Z,27.12
2023-04-10T10:28:44.308Z,27.33
2023-04-10T10:29:41.529Z,25.71
2023-04-10T10:30:41.551Z,23.83
2023-04-10T10:31:42.354Z,24.63
2023-04-10T10:32:41.574Z,26.71
2023-04-10T10:33:41.516Z,26.51
2023-04-10T10:34:41.521Z,25.49
2023-04-10T10:35:41.488Z,24.19
2023-04-10T10:36:41.620Z,24.11
2023-04-10T10:37:41.464Z,23.78
2023-04-10T10:38:41.480Z,23.72
2023-04-10T10:39:41.500Z,23.89
2023-04-10T10:40:41.494Z,24.18
2023-04-10T10:41:41.439Z,24.34
2023-04-10T10:42:41.445Z,24.96
2023-04-10T10:43:41.432Z,26.42
2023-04-10T10:44:41.670Z,26.42
2023-04-10T10:45:41.512Z,26.01
2023-04-10T10:46:41.428Z,26.31
2023-04-10T10:47:41.502Z,26.52
2023-04-10T10:48:41.430Z,25.85
2023-04-10T10:49:42.308Z,25.73
2023-04-10T10:50:41.405Z,25.30
2023-04-10T10:51:42.343Z,23.67
2023-04-10T10:52:42.399Z,23.38
2023-04-10T10:53:41.407Z,24.00
2023-04-10T10:54:53.586Z,23.93
2023-04-10T10:55:42.416Z,23.99
2023-04-10T10:56:42.359Z,24.00
2023-04-10T10:57:41.479Z,23.37
2023-04-10T10:58:41.499Z,23.40
2023-04-10T10:59:41.524Z,23.63
2023-04-10T11:00:41.593Z,23.78
2023-04-10T11:01:44.374Z,24.81
2023-04-10T11:02:41.718Z,25.05
2023-04-10T11:03:41.687Z,25.41
2023-04-10T11:04:41.563Z,25.93
2023-04-10T11:05:41.581Z,25.58
2023-04-10T11:06:43.550Z,24.77
2023-04-10T11:07:41.571Z,24.66
2023-04-10T11:08:42.309Z,24.24
2023-04-10T11:09:41.557Z,23.55
2023-04-10T11:10:41.571Z,23.49
2023-04-10T11:11:41.593Z,23.96
2023-04-10T11:12:41.509Z,23.73
2023-04-10T11:13:41.528Z,23.78
2023-04-10T11:14:41.555Z,24.13
2023-04-10T11:15:41.513Z,23.17
2023-04-10T11:16:41.639Z,22.67
2023-04-10T11:17:41.539Z,22.74
2023-04-10T11:18:41.462Z,23.00
2023-04-10T11:19:41.869Z,22.60
2023-04-10T11:20:41.550Z,21.99
2023-04-10T11:21:41.575Z,21.58
2023-04-10T11:22:41.534Z,21.51
2023-04-10T11:23:41.508Z,22.08
2023-04-10T11:24:41.426Z,21.56
2023-04-10T11:25:41.642Z,20.51
2023-04-10T11:26:41.478Z,20.53
2023-04-10T11:27:42.438Z,21.23
2023-04-10T11:28:41.438Z,21.74
2023-04-10T11:29:42.401Z,22.20
2023-04-10T11:30:41.476Z,22.21
2023-04-10T11:31:41.461Z,22.29
2023-04-10T11:32:41.436Z,22.06
2023-04-10T11:33:41.382Z,21.59
2023-04-10T11:34:41.350Z,21.52
2023-04-10T11:35:48.411Z,22.11
2023-04-10T11:36:42.361Z,22.47
2023-04-10T11:37:42.346Z,22.30
2023-04-10T11:38:41.396Z,21.98
2023-04-10T11:39:41.385Z,21.94
2023-04-10T11:40:43.812Z,22.13
2023-04-10T11:41:41.498Z,23.11
2023-04-10T11:42:41.568Z,24.53
2023-04-10T11:43:41.668Z,22.76
2023-04-10T11:44:42.454Z,22.64
2023-04-10T11:45:41.676Z,22.59
2023-04-10T11:46:41.668Z,22.32
2023-04-10T11:47:41.676Z,22.56
2023-04-10T11:48:41.761Z,22.33
2023-04-10T11:49:41.960Z,22.46
2023-04-10T11:50:41.856Z,22.65
2023-04-10T11:51:42.839Z,22.73
2023-04-10T11:52:41.864Z,22.02
2023-04-10T11:53:41.878Z,21.75
2023-04-10T11:54:41.996Z,21.48
2023-04-10T11:55:42.174Z,21.33
2023-04-10T11:56:42.882Z,21.74
2023-04-10T11:57:42.029Z,22.39
2023-04-10T11:58:42.075Z,23.19
2023-04-10T11:59:42.137Z,23.91
2023-04-10T12:00:42.202Z,24.08
2023-04-10T12:01:43.295Z,24.11
2023-04-10T12:02:42.424Z,23.91
2023-04-10T12:03:42.477Z,23.95
2023-04-10T12:04:42.414Z,23.90
2023-04-10T12:05:42.350Z,24.17
2023-04-10T12:06:42.393Z,22.87
2023-04-10T12:07:42.416Z,22.91
2023-04-10T12:08:42.445Z,22.24
2023-04-10T12:09:42.526Z,22.65
2023-04-10T12:10:42.492Z,23.02
2023-04-10T12:11:42.493Z,23.15
2023-04-10T12:12:42.639Z,23.30
2023-04-10T12:13:42.597Z,23.70
2023-04-10T12:14:42.675Z,23.68
2023-04-10T12:15:42.688Z,23.43
2023-04-10T12:16:42.713Z,23.15
2023-04-10T12:17:42.767Z,23.48
2023-04-10T12:18:42.742Z,22.41
2023-04-10T12:19:42.794Z,22.29
2023-04-10T12:20:43.296Z,22.95
2023-04-10T12:21:43.179Z,23.28
2023-04-10T12:22:42.898Z,23.13
2023-04-10T12:23:43.847Z,22.97
2023-04-10T12:24:42.966Z,23.23
2023-04-10T12:25:42.938Z,22.78
2023-04-10T12:26:42.995Z,22.43
2023-04-10T12:27:42.976Z,22.22
2023-04-10T12:28:42.987Z,21.92
2023-04-10T12:29:43.050Z,22.41
2023-04-10T12:30:43.065Z,22.91
2023-04-10T12:31:43.214Z,23.19
2023-04-10T12:32:43.116Z,22.49
2023-04-10T12:33:43.236Z,22.85
2023-04-10T12:34:43.158Z,22.79
2023-04-10T12:35:43.291Z,22.56
2023-04-10T12:36:43.284Z,21.60
2023-04-10T12:37:43.267Z,21.15
2023-04-10T12:38:43.322Z,21.42
2023-04-10T12:39:43.304Z,21.81
2023-04-10T12:40:43.440Z,21.95
2023-04-10T12:41:43.536Z,21.90
2023-04-10T12:42:43.515Z,22.61
2023-04-10T12:43:43.550Z,22.75
2023-04-10T12:44:43.552Z,22.48
2023-04-10T12:45:43.590Z,22.67
2023-04-10T12:46:43.741Z,22.57
2023-04-10T12:47:43.688Z,21.47
2023-04-10T12:48:43.770Z,20.94
2023-04-10T12:49:43.733Z,20.98
2023-04-10T12:50:43.767Z,21.87
2023-04-10T12:51:43.840Z,22.70
2023-04-10T12:52:43.982Z,22.08